Terminal Aerodrome Forecast
Issued by NWS Upton, NY

Home | Current Version | Previous Version | Text Only | Print | Product List | Glossary On
Versions: 1 2 3 4 5 6 7 8 9 10 11 12 13 14 15 16 17 18 19 20 21 22 23 24 25 26 27 28 29 30 31 32 33 34 35 36 37 38 39 40 41
398
FTUS41 KOKX 300202 AAA
TAFEWR
TAF AMD
KEWR 300202Z 3002/0106 32012G18KT P6SM BKN200
     FM300500 34007KT P6SM FEW050 SCT200
     FM301000 03007KT P6SM BKN050
     FM301400 08010G16KT P6SM BKN050
     FM301700 12012G20KT P6SM FEW025 BKN040
     FM302300 10012KT P6SM SCT015 BKN025=

USA.gov is the U.S. government's official web portal to all federal, state and local government web resources and services.